Time;durP1;ratioP1;P1;durP2;ratioP2;P2;SDS_P1;SDS_P2;PMS_P1;PMS_P2;Temp;Humidity;BMP_temperature;BMP_pressure;BME280_temperature;BME280_humidity;BME280_pressure;Samples;Min_cycle;Max_cycle;Signal;HPM_P1;HPM_P2
2022/05/04 00:00:04;;;;;;;8.27;4.87;;;7.30;99.90;;;;;;4180982;28;20265;-72
2022/05/04 00:02:05;;;;;;;6.60;4.70;;;7.20;99.90;;;;;;4179848;28;20184;-72
2022/05/04 00:04:06;;;;;;;6.40;4.00;;;7.10;99.90;;;;;;4179429;28;20788;-72
2022/05/04 00:06:08;;;;;;;5.17;4.13;;;7.10;99.90;;;;;;4180084;28;20195;-72
2022/05/04 00:08:08;;;;;;;7.63;4.30;;;7.10;99.90;;;;;;4180656;28;20462;-72
2022/05/04 00:10:09;;;;;;;6.10;4.60;;;7.10;99.90;;;;;;4179234;28;20481;-72
2022/05/04 00:12:10;;;;;;;5.30;4.30;;;7.10;99.90;;;;;;4179548;28;20180;-72
2022/05/04 00:14:11;;;;;;;5.93;4.33;;;7.20;99.90;;;;;;4180948;28;20176;-72
2022/05/04 00:16:12;;;;;;;5.10;4.50;;;7.20;99.90;;;;;;4178736;28;20480;-72
2022/05/04 00:18:12;;;;;;;5.53;4.37;;;7.20;99.90;;;;;;4180734;28;20423;-72
2022/05/04 00:20:13;;;;;;;5.37;4.30;;;7.10;99.90;;;;;;4179049;28;20235;-72
2022/05/04 00:22:22;;;;;;;7.00;4.47;;;7.10;99.90;;;;;;4180773;28;20176;-72
2022/05/04 00:24:23;;;;;;;8.17;4.57;;;7.00;99.90;;;;;;4180535;28;20559;-72
2022/05/04 00:26:23;;;;;;;5.10;4.10;;;7.00;99.90;;;;;;4179816;28;20419;-72
2022/05/04 00:28:24;;;;;;;6.97;4.47;;;7.00;99.90;;;;;;4181255;28;20215;-72
2022/05/04 00:30:25;;;;;;;5.70;4.27;;;6.90;99.90;;;;;;4185512;28;20670;-72
2022/05/04 00:32:27;;;;;;;5.53;4.30;;;6.90;99.90;;;;;;4196880;28;20184;-72
2022/05/04 00:34:27;;;;;;;5.80;4.40;;;6.80;99.90;;;;;;4197156;28;20213;-72
2022/05/04 00:36:28;;;;;;;5.67;4.37;;;6.80;99.90;;;;;;4196535;28;20414;-72
2022/05/04 00:38:29;;;;;;;5.67;4.53;;;6.60;99.90;;;;;;4195792;28;20218;-72
2022/05/04 00:40:29;;;;;;;6.20;4.83;;;6.60;99.90;;;;;;4196746;28;20206;-72
2022/05/04 00:42:30;;;;;;;5.17;4.40;;;6.60;99.90;;;;;;4196574;28;20179;-72
2022/05/04 00:44:31;;;;;;;5.90;4.20;;;6.60;99.90;;;;;;4195516;28;20188;-72
2022/05/04 00:46:31;;;;;;;6.77;5.10;;;6.60;99.90;;;;;;4195048;28;20218;-72
2022/05/04 00:48:32;;;;;;;7.07;4.80;;;6.60;99.90;;;;;;4195354;28;20234;-72
2022/05/04 00:50:33;;;;;;;5.30;4.13;;;6.60;99.90;;;;;;4178446;28;20204;-72
2022/05/04 00:52:38;;;;;;;6.73;4.20;;;6.50;99.90;;;;;;4195163;28;20191;-72
2022/05/04 00:54:42;;;;;;;5.37;4.43;;;6.60;99.90;;;;;;4195270;28;20175;-72
2022/05/04 00:56:44;;;;;;;5.77;4.37;;;6.50;99.90;;;;;;4194665;28;20421;-72
2022/05/04 00:58:57;;;;;;;6.07;4.23;;;6.50;99.90;;;;;;4194877;28;20805;-72
2022/05/04 01:01:00;;;;;;;6.03;4.53;;;6.50;99.90;;;;;;4195620;28;20421;-72
2022/05/04 01:03:01;;;;;;;4.83;4.33;;;6.50;99.90;;;;;;4195449;28;20456;-72
2022/05/04 01:05:02;;;;;;;5.73;4.60;;;6.40;99.90;;;;;;4196189;28;20430;-71
2022/05/04 01:07:03;;;;;;;7.23;4.97;;;6.40;99.90;;;;;;4196298;28;20219;-72
2022/05/04 01:09:04;;;;;;;7.33;4.73;;;6.40;99.90;;;;;;4194952;28;20249;-72
2022/05/04 01:11:05;;;;;;;7.63;4.20;;;6.40;99.90;;;;;;4196389;28;20837;-72
2022/05/04 01:13:05;;;;;;;5.27;4.30;;;6.50;99.90;;;;;;4196491;28;20455;-72
2022/05/04 01:15:07;;;;;;;5.77;4.30;;;6.60;99.90;;;;;;4194941;28;20225;-72
2022/05/04 01:17:08;;;;;;;5.33;4.67;;;6.70;99.90;;;;;;4196117;28;20243;-73
2022/05/04 01:19:12;;;;;;;6.23;4.30;;;6.70;99.90;;;;;;4195562;28;20522;-72
2022/05/04 01:21:12;;;;;;;4.70;4.00;;;6.70;99.90;;;;;;4178115;28;20594;-72
2022/05/04 01:23:13;;;;;;;5.47;4.30;;;6.70;99.90;;;;;;4195954;28;20432;-72
2022/05/04 01:25:14;;;;;;;5.70;4.73;;;6.70;99.90;;;;;;4194476;28;20183;-72
2022/05/04 01:27:15;;;;;;;6.63;4.17;;;6.70;99.90;;;;;;4195591;28;21082;-72
2022/05/04 01:29:15;;;;;;;5.53;4.13;;;6.80;99.90;;;;;;4194770;28;20674;-72
2022/05/04 01:31:16;;;;;;;6.43;4.90;;;6.70;99.90;;;;;;4194900;28;20191;-72
2022/05/04 01:33:17;;;;;;;4.53;3.90;;;6.60;99.90;;;;;;4195884;28;20171;-72
2022/05/04 01:35:17;;;;;;;5.57;4.47;;;6.50;99.90;;;;;;4195575;28;20215;-72
2022/05/04 01:37:18;;;;;;;5.47;3.93;;;6.50;99.90;;;;;;4195359;28;20257;-72
2022/05/04 01:39:19;;;;;;;5.20;3.60;;;6.50;99.90;;;;;;4195892;28;20820;-72
2022/05/04 01:43:39;;;;;;;6.20;4.33;;;6.30;99.90;;;;;;4194610;28;20178;-72
2022/05/04 01:45:39;;;;;;;6.83;4.10;;;6.20;99.90;;;;;;4193691;28;20441;-72
2022/05/04 01:47:40;;;;;;;5.13;3.93;;;6.10;99.90;;;;;;4194250;28;20206;-72
2022/05/04 01:49:41;;;;;;;5.10;4.13;;;6.10;99.90;;;;;;4195720;28;20206;-72
2022/05/04 01:51:41;;;;;;;4.70;3.87;;;6.00;99.90;;;;;;4193755;28;20640;-72
2022/05/04 01:53:44;;;;;;;5.53;4.00;;;6.10;99.90;;;;;;4194245;28;20182;-72
2022/05/04 01:55:45;;;;;;;5.27;3.90;;;6.00;99.90;;;;;;4193418;28;20204;-73
2022/05/04 01:57:46;;;;;;;4.63;3.60;;;6.00;99.90;;;;;;4194287;28;20418;-72
2022/05/04 01:59:47;;;;;;;4.30;3.50;;;5.90;99.90;;;;;;4194243;28;20492;-72
2022/05/04 02:01:48;;;;;;;5.33;4.10;;;6.00;99.90;;;;;;4194479;28;20425;-72
2022/05/04 02:03:49;;;;;;;5.00;3.97;;;5.90;99.90;;;;;;4210718;28;20437;-72
2022/05/04 02:05:49;;;;;;;4.30;3.30;;;5.90;99.90;;;;;;4194850;28;21183;-72
2022/05/04 02:07:50;;;;;;;5.60;4.07;;;5.90;99.90;;;;;;4194072;28;20213;-72
2022/05/04 02:09:51;;;;;;;4.47;3.37;;;5.90;99.90;;;;;;4193792;28;20249;-72
2022/05/04 02:11:52;;;;;;;5.80;4.30;;;5.90;99.90;;;;;;4195288;28;20313;-72
2022/05/04 02:13:52;;;;;;;3.97;3.30;;;5.80;99.90;;;;;;4195330;28;20545;-73
2022/05/04 02:15:53;;;;;;;4.13;3.23;;;5.80;99.90;;;;;;4194776;28;20180;-72
2022/05/04 02:17:54;;;;;;;4.10;3.37;;;5.80;99.90;;;;;;4193531;28;20217;-72
2022/05/04 02:19:54;;;;;;;4.40;3.50;;;5.80;99.90;;;;;;4194989;28;20808;-72
2022/05/04 02:21:55;;;;;;;4.20;3.80;;;5.70;99.90;;;;;;4189494;28;20549;-72
2022/05/04 02:23:56;;;;;;;4.47;3.30;;;5.70;99.90;;;;;;4194490;28;20314;-71
2022/05/04 02:25:56;;;;;;;4.37;3.00;;;5.80;99.90;;;;;;4190362;28;20190;-72
2022/05/04 02:27:57;;;;;;;3.87;3.13;;;5.80;99.90;;;;;;4195142;28;20562;-72
2022/05/04 02:29:58;;;;;;;5.20;3.53;;;5.80;99.90;;;;;;4193610;28;20288;-72
2022/05/04 02:31:59;;;;;;;4.00;2.93;;;5.80;99.90;;;;;;4194894;28;20568;-72
2022/05/04 02:34:00;;;;;;;4.43;3.43;;;5.80;99.90;;;;;;4195081;28;20183;-72
2022/05/04 02:38:21;;;;;;;3.97;3.00;;;5.70;99.90;;;;;;4193961;28;20610;-73
2022/05/04 02:40:23;;;;;;;4.00;3.20;;;5.60;99.90;;;;;;4194966;28;20522;-73
2022/05/04 02:42:24;;;;;;;5.67;3.50;;;5.50;99.90;;;;;;4193583;28;20480;-73
2022/05/04 02:44:25;;;;;;;3.90;3.37;;;5.50;99.90;;;;;;4194934;28;20465;-73
2022/05/04 02:46:28;;;;;;;4.03;2.90;;;5.50;99.90;;;;;;4194299;28;20190;-73
2022/05/04 02:48:29;;;;;;;7.03;3.30;;;5.50;99.90;;;;;;4194946;28;20202;-73
2022/05/04 02:50:30;;;;;;;5.23;3.67;;;5.50;99.90;;;;;;4193808;28;20522;-73
2022/05/04 02:52:30;;;;;;;5.37;3.60;;;5.50;99.90;;;;;;4193492;28;20280;-73
2022/05/04 02:54:31;;;;;;;4.23;3.17;;;5.50;99.90;;;;;;4194872;28;20180;-73
2022/05/04 02:56:32;;;;;;;5.30;3.83;;;5.50;99.90;;;;;;4193098;28;20214;-73
2022/05/04 02:58:32;;;;;;;5.67;3.83;;;5.40;99.90;;;;;;4176837;28;20195;-73
2022/05/04 03:00:33;;;;;;;4.17;3.50;;;5.40;99.90;;;;;;4194962;28;20234;-73
2022/05/04 03:02:34;;;;;;;5.03;3.43;;;5.40;99.90;;;;;;4194596;28;20653;-73
2022/05/04 03:04:35;;;;;;;4.50;3.17;;;5.50;99.90;;;;;;4194870;28;20187;-73
2022/05/04 03:06:39;;;;;;;3.77;2.97;;;5.40;99.90;;;;;;4192904;28;20190;-73
2022/05/04 03:08:39;;;;;;;3.37;2.83;;;5.40;99.90;;;;;;4195690;28;20458;-73
2022/05/04 03:13:00;;;;;;;4.20;3.27;;;5.40;99.90;;;;;;4196706;28;20179;-73
2022/05/04 03:15:01;;;;;;;4.33;3.30;;;5.40;99.90;;;;;;4181491;28;20809;-73
2022/05/04 03:17:02;;;;;;;3.53;3.10;;;5.40;99.90;;;;;;4179946;28;20414;-73
2022/05/04 03:19:04;;;;;;;4.83;2.80;;;5.40;99.90;;;;;;4180002;28;20461;-73
2022/05/04 03:21:05;;;;;;;4.73;2.90;;;5.40;99.90;;;;;;4180261;28;20177;-73
2022/05/04 03:23:05;;;;;;;4.27;3.30;;;5.40;99.90;;;;;;4181378;28;20458;-73
2022/05/04 03:25:08;;;;;;;4.03;3.40;;;5.30;99.90;;;;;;4181157;28;20190;-73
2022/05/04 03:27:08;;;;;;;5.00;3.27;;;5.20;99.90;;;;;;4180019;28;20187;-73
2022/05/04 03:29:10;;;;;;;3.77;3.07;;;5.20;99.90;;;;;;4180323;28;20868;-73
2022/05/04 03:31:11;;;;;;;5.77;3.20;;;5.20;99.90;;;;;;4180206;28;20183;-73
2022/05/04 03:33:12;;;;;;;4.57;3.03;;;5.20;99.90;;;;;;4197098;28;20503;-73
2022/05/04 03:35:12;;;;;;;4.67;3.10;;;5.20;99.90;;;;;;4180023;28;20424;-73
2022/05/04 03:37:14;;;;;;;5.17;3.47;;;5.20;99.90;;;;;;4179571;28;20215;-72
2022/05/04 03:39:15;;;;;;;3.93;3.03;;;5.20;99.90;;;;;;4179902;28;20253;-74
2022/05/04 03:41:15;;;;;;;4.00;2.97;;;5.30;99.90;;;;;;4179784;28;20536;-73
2022/05/04 03:43:16;;;;;;;4.23;3.23;;;5.30;99.90;;;;;;4179941;28;20451;-74
2022/05/04 03:45:17;;;;;;;4.90;3.60;;;5.30;99.90;;;;;;4182430;28;20233;-75
2022/05/04 03:47:17;;;;;;;10.73;6.90;;;5.30;99.90;;;;;;4187317;28;20274;-73
2022/05/04 03:49:23;;;;;;;8.77;6.57;;;5.20;99.90;;;;;;4200661;28;20256;-73
2022/05/04 03:51:25;;;;;;;8.63;6.87;;;5.30;99.90;;;;;;4198925;28;20586;-74
2022/05/04 03:53:25;;;;;;;5.83;4.17;;;5.30;99.90;;;;;;4198676;28;20428;-73
2022/05/04 03:55:26;;;;;;;4.43;3.83;;;5.30;99.90;;;;;;4199847;28;20777;-74
2022/05/04 03:57:27;;;;;;;7.17;5.67;;;5.30;99.90;;;;;;4200126;28;20175;-74
2022/05/04 03:59:27;;;;;;;7.37;5.80;;;5.20;99.90;;;;;;4198827;28;20225;-73
2022/05/04 04:01:28;;;;;;;12.07;6.17;;;5.20;99.90;;;;;;4198996;28;20183;-74
2022/05/04 04:03:29;;;;;;;6.40;5.47;;;5.20;99.90;;;;;;4198880;28;20194;-73
2022/05/04 04:05:30;;;;;;;7.87;5.17;;;5.30;99.90;;;;;;4199763;28;20206;-73
2022/05/04 04:07:30;;;;;;;4.67;3.90;;;5.20;99.90;;;;;;4200531;28;20201;-73
2022/05/04 04:09:31;;;;;;;4.67;3.83;;;5.20;99.90;;;;;;4199000;28;20265;-74
2022/05/04 04:11:32;;;;;;;5.27;3.80;;;5.20;99.90;;;;;;4198957;28;20194;-74
2022/05/04 04:13:33;;;;;;;6.10;4.37;;;5.30;99.90;;;;;;4201056;28;20178;-74
2022/05/04 04:15:33;;;;;;;4.80;3.93;;;5.20;99.90;;;;;;4199193;28;20600;-74
2022/05/04 04:17:34;;;;;;;6.13;3.63;;;5.20;99.90;;;;;;4200918;28;20186;-73
2022/05/04 04:19:35;;;;;;;4.90;3.73;;;5.20;99.90;;;;;;4200891;28;20222;-73
2022/05/04 04:21:52;;;;;;;6.10;4.13;;;5.30;99.90;;;;;;4201115;28;20183;-73
2022/05/04 04:23:52;;;;;;;5.73;4.27;;;5.40;99.90;;;;;;4200041;28;20188;-73
2022/05/04 04:25:53;;;;;;;8.73;6.03;;;5.40;99.90;;;;;;4199105;28;21255;-74
2022/05/04 04:27:54;;;;;;;6.57;5.00;;;5.40;99.90;;;;;;4199539;28;20690;-74
2022/05/04 04:29:54;;;;;;;9.13;6.77;;;5.50;99.90;;;;;;4199463;28;20229;-74
2022/05/04 04:31:55;;;;;;;81.30;40.93;;;5.50;99.90;;;;;;4198242;28;20174;-74
2022/05/04 04:33:56;;;;;;;92.60;46.73;;;5.60;99.90;;;;;;4195612;28;20255;-74
2022/05/04 04:35:59;;;;;;;50.67;26.77;;;5.50;99.90;;;;;;4193387;28;20178;-74
2022/05/04 04:38:00;;;;;;;52.20;26.53;;;5.60;99.90;;;;;;4189190;28;20444;-74
2022/05/04 04:40:01;;;;;;;61.50;29.27;;;5.60;99.90;;;;;;4193335;28;20449;-74
2022/05/04 04:42:01;;;;;;;71.10;34.33;;;5.50;99.90;;;;;;4195357;28;20425;-74
2022/05/04 04:44:02;;;;;;;59.13;28.40;;;5.60;99.90;;;;;;4196718;28;20256;-74
2022/05/04 04:46:03;;;;;;;30.10;16.60;;;5.60;99.90;;;;;;4196016;28;20668;-74
2022/05/04 04:48:04;;;;;;;31.00;16.77;;;5.60;99.90;;;;;;4196840;28;20294;-74
2022/05/04 04:50:05;;;;;;;26.00;14.77;;;5.60;99.90;;;;;;4195282;28;20681;-74
2022/05/04 04:52:06;;;;;;;32.13;16.60;;;5.80;99.90;;;;;;4196560;28;20456;-74
2022/05/04 04:54:07;;;;;;;23.63;13.97;;;5.80;99.90;;;;;;4196784;28;20430;-74
2022/05/04 04:56:07;;;;;;;24.73;13.07;;;5.90;99.90;;;;;;4195886;28;20417;-74
2022/05/04 04:58:08;;;;;;;20.93;11.53;;;5.90;99.90;;;;;;4195280;28;20186;-73
2022/05/04 05:00:10;;;;;;;21.47;12.03;;;5.90;99.90;;;;;;4195243;28;20282;-73
2022/05/04 05:02:11;;;;;;;21.17;12.67;;;5.90;99.90;;;;;;4196479;28;20236;-73
2022/05/04 05:04:12;;;;;;;18.77;9.73;;;6.00;99.90;;;;;;4196517;28;20925;-74
2022/05/04 05:06:12;;;;;;;11.83;7.73;;;6.00;99.90;;;;;;4194030;28;20210;-74
2022/05/04 05:08:13;;;;;;;11.03;6.80;;;6.10;99.90;;;;;;4194925;28;20290;-74
2022/05/04 05:10:14;;;;;;;14.10;8.73;;;6.10;99.90;;;;;;4194895;28;20203;-74
2022/05/04 05:12:16;;;;;;;10.20;6.63;;;6.00;99.90;;;;;;4194829;28;20611;-73
2022/05/04 05:16:36;;;;;;;10.43;6.87;;;6.10;99.90;;;;;;4195624;28;21118;-73
2022/05/04 05:18:37;;;;;;;30.23;18.70;;;6.30;99.90;;;;;;4194863;28;20433;-73
2022/05/04 05:20:38;;;;;;;23.80;13.47;;;6.20;99.90;;;;;;4195031;28;20207;-74
2022/05/04 05:22:38;;;;;;;13.73;8.83;;;6.30;99.90;;;;;;4194820;28;20199;-73
2022/05/04 05:24:39;;;;;;;13.10;8.70;;;6.30;99.90;;;;;;4194873;28;20191;-74
2022/05/04 05:26:39;;;;;;;9.97;6.77;;;6.30;99.90;;;;;;4195564;28;20566;-74
2022/05/04 05:28:40;;;;;;;12.53;6.07;;;6.40;99.90;;;;;;4194634;28;20945;-74
2022/05/04 05:30:42;;;;;;;21.80;7.37;;;6.40;99.90;;;;;;4194094;28;20581;-73
2022/05/04 05:32:43;;;;;;;14.73;6.07;;;6.40;99.90;;;;;;4195901;28;20228;-74
2022/05/04 05:34:43;;;;;;;11.17;5.77;;;6.60;99.90;;;;;;4195836;28;20465;-74
2022/05/04 05:36:44;;;;;;;15.83;6.27;;;6.50;99.90;;;;;;4193804;28;20183;-73
2022/05/04 05:38:45;;;;;;;12.57;4.50;;;6.60;99.90;;;;;;4195764;28;20237;-73
2022/05/04 05:40:47;;;;;;;6.57;4.23;;;6.60;99.90;;;;;;4195905;28;20542;-74
2022/05/04 05:42:48;;;;;;;14.80;4.63;;;6.70;99.90;;;;;;4194417;28;20195;-73
2022/05/04 05:44:49;;;;;;;6.20;3.73;;;6.80;99.90;;;;;;4194562;28;20493;-74
2022/05/04 05:46:50;;;;;;;5.83;3.00;;;6.80;99.90;;;;;;4193775;28;20217;-74
2022/05/04 05:48:51;;;;;;;4.03;2.97;;;6.90;99.90;;;;;;4192442;28;20470;-73
2022/05/04 05:50:51;;;;;;;4.77;2.77;;;6.90;99.90;;;;;;4177960;28;20216;-74
2022/05/04 05:52:52;;;;;;;3.70;3.27;;;7.00;99.90;;;;;;4179282;28;20188;-74
2022/05/04 05:54:53;;;;;;;3.70;2.97;;;7.10;99.90;;;;;;4179193;28;20643;-74
2022/05/04 05:56:53;;;;;;;9.90;3.33;;;7.10;99.90;;;;;;4177348;28;20573;-74
2022/05/04 05:58:54;;;;;;;7.10;3.20;;;7.20;99.90;;;;;;4177947;28;20184;-74
2022/05/04 06:00:55;;;;;;;5.17;3.63;;;7.30;99.90;;;;;;4179191;28;20184;-73
2022/05/04 06:02:55;;;;;;;3.73;2.77;;;7.30;99.90;;;;;;4177653;28;20693;-74
2022/05/04 06:04:56;;;;;;;7.70;3.30;;;7.40;99.90;;;;;;4178769;28;20212;-74
2022/05/04 06:06:56;;;;;;;4.43;3.00;;;7.60;99.90;;;;;;4177215;28;20220;-74
2022/05/04 06:08:57;;;;;;;4.13;2.87;;;7.60;99.90;;;;;;4177447;28;20212;-74
2022/05/04 06:10:58;;;;;;;3.67;2.90;;;7.80;99.90;;;;;;4178994;28;20266;-73
2022/05/04 06:12:59;;;;;;;9.50;3.10;;;7.90;99.90;;;;;;4177678;28;20185;-74
2022/05/04 06:15:01;;;;;;;7.87;2.83;;;8.10;99.90;;;;;;4178543;28;20183;-74
2022/05/04 06:17:02;;;;;;;3.57;2.70;;;8.10;99.90;;;;;;4193625;28;20424;-72
2022/05/04 06:19:03;;;;;;;4.10;3.40;;;8.20;99.90;;;;;;4177530;28;20465;-72
2022/05/04 06:21:04;;;;;;;4.77;3.53;;;8.40;99.90;;;;;;4178824;28;20188;-73
2022/05/04 06:23:06;;;;;;;4.60;3.30;;;8.60;99.90;;;;;;4178809;28;20466;-74
2022/05/04 06:25:07;;;;;;;7.97;2.53;;;8.70;99.90;;;;;;4193933;28;20182;-74
2022/05/04 06:27:07;;;;;;;4.30;3.00;;;8.90;99.90;;;;;;4181100;28;20198;-74
2022/05/04 06:29:08;;;;;;;5.07;3.13;;;9.20;99.90;;;;;;4192125;28;20214;-73
2022/05/04 06:35:47;;;;;;;3.80;2.77;;;9.80;99.80;;;;;;4187287;28;20241;-75
2022/05/04 06:37:48;;;;;;;3.33;2.60;;;9.90;99.50;;;;;;4186365;28;20523;-71
2022/05/04 06:39:49;;;;;;;3.33;2.33;;;10.00;99.30;;;;;;4189728;28;20603;-73
2022/05/04 06:41:49;;;;;;;2.90;2.60;;;10.20;99.30;;;;;;4190463;28;20654;-71
2022/05/04 06:43:50;;;;;;;4.53;2.50;;;10.30;98.80;;;;;;4188899;28;21060;-70
2022/05/04 06:45:51;;;;;;;2.67;2.20;;;10.50;98.20;;;;;;4189644;28;20830;-72
2022/05/04 06:47:51;;;;;;;5.40;2.50;;;10.70;97.90;;;;;;4191857;28;20187;-72
2022/05/04 06:49:52;;;;;;;2.67;2.27;;;11.00;96.30;;;;;;4191687;28;20826;-75
2022/05/04 06:51:53;;;;;;;2.40;2.20;;;11.00;95.60;;;;;;4189143;28;20187;-73
2022/05/04 06:53:53;;;;;;;5.37;2.40;;;11.10;96.00;;;;;;4191534;28;20548;-71
2022/05/04 06:55:54;;;;;;;2.60;2.30;;;11.20;95.40;;;;;;4186912;28;20585;-70
2022/05/04 06:57:55;;;;;;;2.97;2.13;;;11.30;95.30;;;;;;4193596;28;20237;-73
2022/05/04 06:59:57;;;;;;;4.57;2.73;;;11.40;95.20;;;;;;4194289;28;20200;-72
2022/05/04 07:01:58;;;;;;;6.07;2.77;;;11.40;95.50;;;;;;4194288;28;20183;-72
2022/05/04 07:03:59;;;;;;;5.07;2.80;;;11.50;96.20;;;;;;4194350;28;20245;-72
2022/05/04 07:05:59;;;;;;;3.40;2.70;;;11.50;96.20;;;;;;4193750;28;20184;-72
2022/05/04 07:08:00;;;;;;;5.33;2.63;;;11.60;96.10;;;;;;4194410;28;20183;-71
2022/05/04 07:10:01;;;;;;;4.50;2.70;;;11.80;95.60;;;;;;4194178;28;20644;-72
2022/05/04 07:12:01;;;;;;;4.23;2.50;;;12.00;95.00;;;;;;4194377;28;20194;-72
2022/05/04 07:14:02;;;;;;;3.57;2.23;;;12.20;93.80;;;;;;4194274;28;20183;-72
2022/05/04 07:16:03;;;;;;;3.47;3.10;;;12.50;92.30;;;;;;4193742;28;20180;-72
2022/05/04 07:18:04;;;;;;;2.70;2.37;;;12.90;91.00;;;;;;4193994;28;20756;-72
2022/05/04 07:20:05;;;;;;;3.07;2.17;;;13.20;88.30;;;;;;4194016;28;20211;-72
2022/05/04 07:22:06;;;;;;;2.80;1.90;;;13.50;82.40;;;;;;4194112;28;20589;-72
2022/05/04 07:24:07;;;;;;;2.33;2.13;;;13.70;80.90;;;;;;4194243;28;20180;-72
2022/05/04 07:26:07;;;;;;;3.67;2.20;;;13.90;79.70;;;;;;4193681;28;20176;-71
2022/05/04 07:28:08;;;;;;;2.77;2.27;;;14.20;80.60;;;;;;4194202;28;20998;-72
2022/05/04 07:30:10;;;;;;;1.90;1.67;;;14.30;74.70;;;;;;4194134;28;20695;-69
2022/05/04 07:32:10;;;;;;;3.20;1.97;;;14.50;71.20;;;;;;4194099;28;20274;-71
2022/05/04 07:34:14;;;;;;;2.20;2.00;;;14.80;70.00;;;;;;4192954;28;20183;-71
2022/05/04 07:36:14;;;;;;;3.37;2.00;;;14.90;69.50;;;;;;4191899;28;20180;-74
2022/05/04 07:38:15;;;;;;;2.23;1.97;;;15.10;65.80;;;;;;4192791;28;20183;-74
2022/05/04 07:42:35;;;;;;;3.47;1.67;;;15.30;60.80;;;;;;4194031;28;20229;-72
2022/05/04 07:44:36;;;;;;;2.70;2.07;;;15.40;63.50;;;;;;4192626;28;20196;-71
2022/05/04 07:46:36;;;;;;;3.70;1.70;;;15.90;56.60;;;;;;4193401;28;20233;-71
2022/05/04 07:48:37;;;;;;;2.87;1.90;;;16.10;58.60;;;;;;4193745;28;20670;-70
2022/05/04 07:50:38;;;;;;;3.40;1.87;;;16.20;56.30;;;;;;4193788;28;20239;-71
2022/05/04 07:52:41;;;;;;;2.23;1.70;;;16.10;57.60;;;;;;4194008;28;20184;-71
2022/05/04 07:54:42;;;;;;;2.23;1.70;;;16.00;57.80;;;;;;4194866;28;20692;-71
2022/05/04 07:56:43;;;;;;;1.93;1.70;;;15.80;59.50;;;;;;4193313;28;20249;-70
2022/05/04 07:58:43;;;;;;;2.97;1.80;;;15.80;60.30;;;;;;4196929;28;20223;-71
2022/05/04 08:05:23;;;;;;;2.63;2.10;;;16.20;54.50;;;;;;4194985;28;20230;-68
2022/05/04 08:07:24;;;;;;;2.40;2.00;;;16.30;53.90;;;;;;4196732;28;20646;-69
2022/05/04 08:09:24;;;;;;;2.73;2.03;;;16.10;56.40;;;;;;4196718;28;20225;-70
2022/05/04 08:11:25;;;;;;;2.50;2.30;;;15.90;56.80;;;;;;4196787;28;20567;-71
2022/05/04 08:13:26;;;;;;;2.43;1.67;;;15.70;58.20;;;;;;4196794;28;20194;-70
2022/05/04 08:15:27;;;;;;;2.47;1.73;;;15.50;57.10;;;;;;4194825;28;20237;-71
2022/05/04 08:17:28;;;;;;;2.47;1.83;;;15.30;57.10;;;;;;4195270;28;20234;-72
2022/05/04 08:19:29;;;;;;;4.00;2.03;;;15.10;58.60;;;;;;4196972;28;20223;-72
2022/05/04 08:21:30;;;;;;;2.13;1.93;;;15.00;58.80;;;;;;4195398;28;20241;-70
2022/05/04 08:23:31;;;;;;;3.73;1.70;;;14.90;60.00;;;;;;4195347;28;20693;-71
2022/05/04 08:25:31;;;;;;;2.40;1.90;;;14.80;60.00;;;;;;4196281;28;20187;-72
2022/05/04 08:27:32;;;;;;;2.27;1.90;;;14.70;59.80;;;;;;4195028;28;20635;-70
2022/05/04 08:29:33;;;;;;;5.77;2.27;;;14.70;60.20;;;;;;4196213;28;20215;-70
2022/05/04 08:31:34;;;;;;;5.77;2.20;;;14.60;61.40;;;;;;4195166;28;20234;-72
2022/05/04 08:33:35;;;;;;;2.70;1.80;;;14.70;60.90;;;;;;4196539;28;20574;-69
2022/05/04 08:35:36;;;;;;;1.83;1.73;;;14.60;60.60;;;;;;4195705;28;20184;-70
2022/05/04 08:37:37;;;;;;;2.10;1.90;;;14.50;63.30;;;;;;4196267;28;20183;-70
2022/05/04 08:39:37;;;;;;;3.37;1.77;;;14.50;62.50;;;;;;4196440;28;20249;-70
2022/05/04 08:41:42;;;;;;;2.77;2.00;;;14.50;63.70;;;;;;4197840;28;20298;-69
2022/05/04 08:43:47;;;;;;;2.50;1.70;;;14.50;64.60;;;;;;4198353;28;20213;-68
2022/05/04 08:45:52;;;;;;;3.60;1.90;;;14.50;61.30;;;;;;4197565;28;20191;-69
2022/05/04 08:47:54;;;;;;;2.13;1.70;;;14.60;59.70;;;;;;4198284;28;20195;-68
2022/05/04 08:49:55;;;;;;;2.30;1.90;;;14.50;62.40;;;;;;4198393;28;20211;-69
2022/05/04 08:51:57;;;;;;;3.43;2.00;;;14.30;63.30;;;;;;4199418;28;20180;-69
2022/05/04 08:53:58;;;;;;;2.30;1.90;;;14.30;64.30;;;;;;4198169;28;20179;-68
2022/05/04 08:55:59;;;;;;;3.63;2.00;;;14.30;65.00;;;;;;4192898;28;20223;-69
2022/05/04 08:58:00;;;;;;;2.00;1.90;;;14.20;65.30;;;;;;4197297;28;20730;-69
2022/05/04 09:00:00;;;;;;;2.57;1.77;;;14.10;70.90;;;;;;4199127;28;20199;-69
2022/05/04 09:02:01;;;;;;;2.20;2.00;;;14.00;71.20;;;;;;4199038;28;20245;-70
2022/05/04 09:04:03;;;;;;;2.07;1.80;;;13.90;73.80;;;;;;4198865;28;20278;-71
2022/05/04 09:06:03;;;;;;;3.13;1.93;;;13.80;74.30;;;;;;4195676;28;20218;-70
2022/05/04 09:08:04;;;;;;;3.37;2.27;;;13.60;76.70;;;;;;4195569;28;20205;-70
2022/05/04 09:10:06;;;;;;;2.03;1.83;;;13.80;72.70;;;;;;4195574;28;20230;-69
2022/05/04 09:12:07;;;;;;;2.10;1.90;;;13.90;71.00;;;;;;4196957;28;20652;-69
2022/05/04 09:14:15;;;;;;;2.30;1.80;;;14.00;67.50;;;;;;4195924;28;20623;-72
2022/05/04 09:16:34;;;;;;;2.20;1.90;;;14.20;68.40;;;;;;4196615;28;20988;-69
2022/05/04 09:18:34;;;;;;;2.33;2.13;;;14.30;69.80;;;;;;4194974;28;20183;-71
2022/05/04 09:20:58;;;;;;;2.63;2.00;;;14.30;69.60;;;;;;4194927;28;20277;-69
2022/05/04 09:22:59;;;;;;;2.83;2.00;;;14.40;69.80;;;;;;4195138;28;20179;-70
2022/05/04 09:25:00;;;;;;;2.23;2.03;;;14.50;69.10;;;;;;4196077;28;20210;-70
2022/05/04 09:27:01;;;;;;;2.20;2.00;;;14.60;69.80;;;;;;4194948;28;20187;-70
2022/05/04 09:29:06;;;;;;;2.37;2.17;;;14.60;70.60;;;;;;4191664;28;20294;-71
2022/05/04 09:31:07;;;;;;;3.60;2.00;;;14.50;70.40;;;;;;4190597;28;20266;-72
2022/05/04 09:33:11;;;;;;;3.93;2.67;;;14.50;71.70;;;;;;4191827;28;20180;-70
2022/05/04 09:35:13;;;;;;;2.37;2.17;;;14.70;69.50;;;;;;4191312;28;20172;-70
2022/05/04 09:44:57;;;;;;;3.13;1.83;;;14.70;70.60;;;;;;4190427;28;20190;-70
2022/05/04 09:46:58;;;;;;;2.47;2.00;;;14.70;69.10;;;;;;4191972;28;20723;-71
2022/05/04 09:49:09;;;;;;;2.30;2.10;;;14.90;68.90;;;;;;4190288;28;20207;-70
2022/05/04 09:51:10;;;;;;;3.43;2.17;;;14.70;68.50;;;;;;4189579;28;20184;-71
2022/05/04 09:53:11;;;;;;;4.20;2.60;;;14.80;66.00;;;;;;4191183;28;20188;-70
2022/05/04 09:55:24;;;;;;;3.37;2.30;;;14.90;67.20;;;;;;4192457;28;20195;-71
2022/05/04 09:57:25;;;;;;;2.83;2.40;;;15.10;62.50;;;;;;4189613;28;20179;-70
2022/05/04 09:59:36;;;;;;;5.67;2.37;;;15.00;61.70;;;;;;4190832;28;20202;-70
2022/05/04 10:01:37;;;;;;;2.30;2.10;;;15.10;62.40;;;;;;4190695;28;20175;-70
2022/05/04 10:03:38;;;;;;;2.73;2.27;;;15.10;63.70;;;;;;4190836;28;20183;-72
2022/05/04 10:05:39;;;;;;;3.40;2.73;;;15.20;63.80;;;;;;4189581;28;20191;-71
2022/05/04 10:07:41;;;;;;;3.00;2.50;;;15.30;62.40;;;;;;4190291;28;20227;-71
2022/05/04 10:09:42;;;;;;;2.17;1.97;;;15.50;62.20;;;;;;4192916;28;20218;-71
2022/05/04 10:11:43;;;;;;;2.70;2.20;;;15.70;62.10;;;;;;4189550;28;20712;-71
2022/05/04 10:13:44;;;;;;;3.70;2.37;;;16.10;59.30;;;;;;4191265;28;20184;-72
2022/05/04 10:15:50;;;;;;;2.57;2.30;;;16.10;59.60;;;;;;4191146;28;20194;-71
2022/05/04 10:18:24;;;;;;;4.17;2.50;;;16.40;60.30;;;;;;4189744;28;20245;-71
2022/05/04 10:20:37;;;;;;;3.13;1.80;;;16.30;58.60;;;;;;4189544;28;20211;-70
2022/05/04 10:22:47;;;;;;;3.40;2.17;;;16.50;56.80;;;;;;4190169;28;21022;-73
2022/05/04 10:24:49;;;;;;;1.80;1.70;;;16.70;55.10;;;;;;4190984;28;20179;-72
2022/05/04 10:26:50;;;;;;;2.23;2.00;;;17.10;54.30;;;;;;4190519;28;20190;-71
2022/05/04 10:31:13;;;;;;;3.13;1.73;;;17.90;50.30;;;;;;4191490;28;20198;-71
2022/05/04 10:33:18;;;;;;;3.53;2.00;;;17.90;50.70;;;;;;4189156;28;20270;-71
2022/05/04 10:35:22;;;;;;;2.40;2.20;;;18.20;49.60;;;;;;4188966;28;20220;-71
2022/05/04 10:37:25;;;;;;;3.80;1.90;;;18.10;50.50;;;;;;4190121;28;20189;-72
2022/05/04 10:39:25;;;;;;;2.20;2.00;;;18.20;48.70;;;;;;4191146;28;20199;-71
2022/05/04 10:41:35;;;;;;;2.40;1.90;;;18.80;47.30;;;;;;4190918;28;20563;-72
2022/05/04 10:43:47;;;;;;;2.30;2.10;;;18.70;46.40;;;;;;4191062;28;20872;-69
2022/05/04 10:45:49;;;;;;;3.97;1.90;;;18.30;48.80;;;;;;4189788;28;20258;-69
2022/05/04 10:47:49;;;;;;;5.00;2.23;;;18.80;49.20;;;;;;4190821;28;20209;-70
2022/05/04 10:49:59;;;;;;;2.90;2.23;;;19.20;47.90;;;;;;4190955;28;20250;-73
2022/05/04 10:52:04;;;;;;;3.13;2.43;;;19.40;47.90;;;;;;4187007;28;20187;-72
2022/05/04 10:54:18;;;;;;;2.50;2.30;;;20.00;43.40;;;;;;4195343;28;20270;-71
2022/05/04 10:56:25;;;;;;;2.40;2.20;;;20.00;44.20;;;;;;4207115;28;20265;-72
2022/05/04 10:58:56;;;;;;;3.43;2.13;;;19.60;44.10;;;;;;4195594;28;20221;-71
2022/05/04 11:01:11;;;;;;;2.93;2.00;;;19.50;44.40;;;;;;4182552;28;20175;-72
2022/05/04 11:03:12;;;;;;;4.73;2.30;;;19.10;46.60;;;;;;4203980;28;20198;-73
2022/05/04 11:05:14;;;;;;;2.00;1.90;;;18.90;47.00;;;;;;4199242;28;20280;-72
2022/05/04 11:07:15;;;;;;;2.43;2.23;;;18.60;48.00;;;;;;4203389;28;20254;-71